sensor_id;sensor_type;location;lat;lon;timestamp;P1;durP1;ratioP1;P2;durP2;ratioP2
40533;SDS011;26233;51.894;10.192;2023-02-01T00:00:03;7.63;;;2.83;;
40533;SDS011;26233;51.894;10.192;2023-02-01T00:02:31;4.93;;;2.60;;
40533;SDS011;26233;51.894;10.192;2023-02-01T00:04:58;6.17;;;2.77;;
40533;SDS011;26233;51.894;10.192;2023-02-01T00:07:25;7.63;;;2.93;;
40533;SDS011;26233;51.894;10.192;2023-02-01T00:09:52;6.23;;;2.67;;
40533;SDS011;26233;51.894;10.192;2023-02-01T00:12:19;7.17;;;2.80;;
40533;SDS011;26233;51.894;10.192;2023-02-01T00:14:47;6.17;;;2.40;;
40533;SDS011;26233;51.894;10.192;2023-02-01T00:17:14;4.90;;;2.50;;
40533;SDS011;26233;51.894;10.192;2023-02-01T00:19:41;6.13;;;2.47;;
40533;SDS011;26233;51.894;10.192;2023-02-01T00:22:08;4.63;;;2.50;;
40533;SDS011;26233;51.894;10.192;2023-02-01T00:24:35;7.17;;;2.80;;
40533;SDS011;26233;51.894;10.192;2023-02-01T00:27:02;8.47;;;2.70;;
40533;SDS011;26233;51.894;10.192;2023-02-01T00:29:29;5.17;;;2.67;;
40533;SDS011;26233;51.894;10.192;2023-02-01T00:31:57;5.60;;;2.47;;
40533;SDS011;26233;51.894;10.192;2023-02-01T00:34:24;7.60;;;2.37;;
40533;SDS011;26233;51.894;10.192;2023-02-01T00:36:52;8.77;;;3.77;;
40533;SDS011;26233;51.894;10.192;2023-02-01T00:39:19;7.53;;;4.03;;
40533;SDS011;26233;51.894;10.192;2023-02-01T00:41:46;6.03;;;3.00;;
40533;SDS011;26233;51.894;10.192;2023-02-01T00:44:16;6.17;;;2.93;;
40533;SDS011;26233;51.894;10.192;2023-02-01T00:46:43;7.83;;;3.33;;
40533;SDS011;26233;51.894;10.192;2023-02-01T00:49:11;5.13;;;2.67;;
40533;SDS011;26233;51.894;10.192;2023-02-01T00:51:38;7.03;;;2.97;;
40533;SDS011;26233;51.894;10.192;2023-02-01T00:54:05;5.87;;;2.87;;
40533;SDS011;26233;51.894;10.192;2023-02-01T00:56:32;6.97;;;2.80;;
40533;SDS011;26233;51.894;10.192;2023-02-01T00:58:59;8.93;;;2.87;;
40533;SDS011;26233;51.894;10.192;2023-02-01T01:01:26;5.73;;;2.60;;
40533;SDS011;26233;51.894;10.192;2023-02-01T01:03:55;6.03;;;2.70;;
40533;SDS011;26233;51.894;10.192;2023-02-01T01:06:26;7.70;;;2.70;;
40533;SDS011;26233;51.894;10.192;2023-02-01T01:08:56;7.27;;;2.70;;
40533;SDS011;26233;51.894;10.192;2023-02-01T01:11:25;6.57;;;2.53;;
40533;SDS011;26233;51.894;10.192;2023-02-01T01:13:56;5.63;;;2.40;;
40533;SDS011;26233;51.894;10.192;2023-02-01T01:16:25;6.70;;;3.13;;
40533;SDS011;26233;51.894;10.192;2023-02-01T01:18:54;5.77;;;2.70;;
40533;SDS011;26233;51.894;10.192;2023-02-01T01:21:22;4.83;;;2.57;;
40533;SDS011;26233;51.894;10.192;2023-02-01T01:23:50;5.60;;;2.50;;
40533;SDS011;26233;51.894;10.192;2023-02-01T01:26:18;5.70;;;2.33;;
40533;SDS011;26233;51.894;10.192;2023-02-01T01:28:48;5.63;;;2.47;;
40533;SDS011;26233;51.894;10.192;2023-02-01T01:31:16;6.30;;;2.57;;
40533;SDS011;26233;51.894;10.192;2023-02-01T01:33:47;5.87;;;2.67;;
40533;SDS011;26233;51.894;10.192;2023-02-01T01:36:15;8.87;;;2.77;;
40533;SDS011;26233;51.894;10.192;2023-02-01T01:38:42;8.17;;;2.83;;
40533;SDS011;26233;51.894;10.192;2023-02-01T01:41:13;5.57;;;2.87;;
40533;SDS011;26233;51.894;10.192;2023-02-01T01:43:49;9.47;;;2.93;;
40533;SDS011;26233;51.894;10.192;2023-02-01T01:46:19;4.40;;;2.60;;
40533;SDS011;26233;51.894;10.192;2023-02-01T01:48:50;8.47;;;2.63;;
40533;SDS011;26233;51.894;10.192;2023-02-01T01:51:24;6.50;;;2.53;;
40533;SDS011;26233;51.894;10.192;2023-02-01T01:53:56;4.93;;;2.40;;
40533;SDS011;26233;51.894;10.192;2023-02-01T01:56:29;5.40;;;2.20;;
40533;SDS011;26233;51.894;10.192;2023-02-01T01:58:58;6.63;;;2.80;;
40533;SDS011;26233;51.894;10.192;2023-02-01T02:01:29;6.17;;;2.60;;
40533;SDS011;26233;51.894;10.192;2023-02-01T02:03:56;8.27;;;2.77;;
40533;SDS011;26233;51.894;10.192;2023-02-01T02:06:33;5.27;;;2.50;;
40533;SDS011;26233;51.894;10.192;2023-02-01T02:09:07;4.63;;;2.40;;
40533;SDS011;26233;51.894;10.192;2023-02-01T02:11:35;6.57;;;2.63;;
40533;SDS011;26233;51.894;10.192;2023-02-01T02:14:02;5.87;;;2.33;;
40533;SDS011;26233;51.894;10.192;2023-02-01T02:19:32;6.53;;;2.90;;
40533;SDS011;26233;51.894;10.192;2023-02-01T02:30:16;6.47;;;3.00;;
40533;SDS011;26233;51.894;10.192;2023-02-01T02:33:17;6.73;;;2.80;;
40533;SDS011;26233;51.894;10.192;2023-02-01T02:36:23;6.07;;;2.83;;
40533;SDS011;26233;51.894;10.192;2023-02-01T02:39:04;5.53;;;2.63;;
40533;SDS011;26233;51.894;10.192;2023-02-01T02:41:37;5.47;;;2.90;;
40533;SDS011;26233;51.894;10.192;2023-02-01T02:44:34;6.83;;;2.87;;
40533;SDS011;26233;51.894;10.192;2023-02-01T02:47:31;4.77;;;2.50;;
40533;SDS011;26233;51.894;10.192;2023-02-01T02:50:07;8.47;;;2.97;;
40533;SDS011;26233;51.894;10.192;2023-02-01T02:53:02;7.70;;;3.13;;
40533;SDS011;26233;51.894;10.192;2023-02-01T02:55:54;6.07;;;3.10;;
40533;SDS011;26233;51.894;10.192;2023-02-01T02:58:41;7.30;;;3.40;;
40533;SDS011;26233;51.894;10.192;2023-02-01T03:01:27;4.90;;;2.80;;
40533;SDS011;26233;51.894;10.192;2023-02-01T03:04:12;5.90;;;3.20;;
40533;SDS011;26233;51.894;10.192;2023-02-01T03:06:44;7.43;;;3.10;;
40533;SDS011;26233;51.894;10.192;2023-02-01T03:09:13;6.40;;;2.83;;
40533;SDS011;26233;51.894;10.192;2023-02-01T03:11:49;6.47;;;3.00;;
40533;SDS011;26233;51.894;10.192;2023-02-01T03:14:40;8.67;;;3.23;;
40533;SDS011;26233;51.894;10.192;2023-02-01T03:17:12;6.60;;;3.30;;
40533;SDS011;26233;51.894;10.192;2023-02-01T03:19:45;5.73;;;3.17;;
40533;SDS011;26233;51.894;10.192;2023-02-01T03:22:16;9.33;;;3.03;;
40533;SDS011;26233;51.894;10.192;2023-02-01T03:24:47;6.20;;;3.10;;
40533;SDS011;26233;51.894;10.192;2023-02-01T03:27:19;6.27;;;3.23;;
40533;SDS011;26233;51.894;10.192;2023-02-01T03:29:51;7.00;;;2.90;;
40533;SDS011;26233;51.894;10.192;2023-02-01T03:32:24;7.17;;;3.07;;
40533;SDS011;26233;51.894;10.192;2023-02-01T03:34:51;5.83;;;2.87;;
40533;SDS011;26233;51.894;10.192;2023-02-01T03:37:21;4.67;;;2.67;;
40533;SDS011;26233;51.894;10.192;2023-02-01T03:39:53;6.30;;;2.90;;
40533;SDS011;26233;51.894;10.192;2023-02-01T03:42:27;6.30;;;3.20;;
40533;SDS011;26233;51.894;10.192;2023-02-01T03:45:01;7.43;;;3.00;;
40533;SDS011;26233;51.894;10.192;2023-02-01T03:47:37;6.70;;;3.17;;
40533;SDS011;26233;51.894;10.192;2023-02-01T03:50:09;7.47;;;3.27;;
40533;SDS011;26233;51.894;10.192;2023-02-01T03:52:42;6.27;;;3.03;;
40533;SDS011;26233;51.894;10.192;2023-02-01T03:55:11;5.37;;;3.03;;
40533;SDS011;26233;51.894;10.192;2023-02-01T03:57:43;7.93;;;3.20;;
40533;SDS011;26233;51.894;10.192;2023-02-01T04:00:15;8.00;;;3.40;;
40533;SDS011;26233;51.894;10.192;2023-02-01T04:02:46;7.37;;;3.40;;
40533;SDS011;26233;51.894;10.192;2023-02-01T04:05:14;7.70;;;3.30;;
40533;SDS011;26233;51.894;10.192;2023-02-01T04:07:43;5.57;;;3.53;;
40533;SDS011;26233;51.894;10.192;2023-02-01T04:10:10;7.53;;;3.57;;
40533;SDS011;26233;51.894;10.192;2023-02-01T04:12:38;7.50;;;3.77;;
40533;SDS011;26233;51.894;10.192;2023-02-01T04:15:06;6.27;;;3.57;;
40533;SDS011;26233;51.894;10.192;2023-02-01T04:17:34;10.90;;;3.67;;
40533;SDS011;26233;51.894;10.192;2023-02-01T04:20:01;7.20;;;3.90;;
40533;SDS011;26233;51.894;10.192;2023-02-01T04:22:29;6.13;;;3.80;;
40533;SDS011;26233;51.894;10.192;2023-02-01T04:24:58;9.83;;;4.93;;
40533;SDS011;26233;51.894;10.192;2023-02-01T04:27:25;6.20;;;3.70;;
40533;SDS011;26233;51.894;10.192;2023-02-01T04:29:52;5.07;;;3.47;;
40533;SDS011;26233;51.894;10.192;2023-02-01T04:32:20;7.33;;;4.47;;
40533;SDS011;26233;51.894;10.192;2023-02-01T04:34:47;7.77;;;4.33;;
40533;SDS011;26233;51.894;10.192;2023-02-01T04:37:15;7.30;;;3.80;;
40533;SDS011;26233;51.894;10.192;2023-02-01T04:39:42;8.17;;;4.40;;
40533;SDS011;26233;51.894;10.192;2023-02-01T04:42:11;6.67;;;4.13;;
40533;SDS011;26233;51.894;10.192;2023-02-01T04:44:39;8.67;;;4.57;;
40533;SDS011;26233;51.894;10.192;2023-02-01T04:47:07;7.10;;;4.30;;
40533;SDS011;26233;51.894;10.192;2023-02-01T04:49:34;7.33;;;3.90;;
40533;SDS011;26233;51.894;10.192;2023-02-01T04:52:01;7.13;;;4.10;;
40533;SDS011;26233;51.894;10.192;2023-02-01T04:54:28;7.80;;;4.80;;
40533;SDS011;26233;51.894;10.192;2023-02-01T04:56:55;11.00;;;4.43;;
40533;SDS011;26233;51.894;10.192;2023-02-01T04:59:24;6.50;;;3.73;;
40533;SDS011;26233;51.894;10.192;2023-02-01T05:01:51;6.97;;;4.03;;
40533;SDS011;26233;51.894;10.192;2023-02-01T05:04:18;9.20;;;3.87;;
40533;SDS011;26233;51.894;10.192;2023-02-01T05:06:45;6.53;;;3.77;;
40533;SDS011;26233;51.894;10.192;2023-02-01T05:09:12;7.40;;;4.60;;
40533;SDS011;26233;51.894;10.192;2023-02-01T05:11:39;8.67;;;3.90;;
40533;SDS011;26233;51.894;10.192;2023-02-01T05:14:25;7.67;;;3.93;;
40533;SDS011;26233;51.894;10.192;2023-02-01T05:16:52;7.10;;;4.00;;
40533;SDS011;26233;51.894;10.192;2023-02-01T05:19:19;6.60;;;3.80;;
40533;SDS011;26233;51.894;10.192;2023-02-01T05:21:47;6.10;;;3.73;;
40533;SDS011;26233;51.894;10.192;2023-02-01T05:24:14;7.43;;;4.00;;
40533;SDS011;26233;51.894;10.192;2023-02-01T05:26:45;9.07;;;3.70;;
40533;SDS011;26233;51.894;10.192;2023-02-01T05:29:14;7.27;;;3.70;;
40533;SDS011;26233;51.894;10.192;2023-02-01T05:31:44;5.23;;;3.30;;
40533;SDS011;26233;51.894;10.192;2023-02-01T05:34:12;6.23;;;3.30;;
40533;SDS011;26233;51.894;10.192;2023-02-01T05:36:39;7.73;;;3.73;;
40533;SDS011;26233;51.894;10.192;2023-02-01T05:39:08;7.07;;;3.50;;
40533;SDS011;26233;51.894;10.192;2023-02-01T05:41:36;7.77;;;3.60;;
40533;SDS011;26233;51.894;10.192;2023-02-01T05:44:03;6.93;;;3.63;;
40533;SDS011;26233;51.894;10.192;2023-02-01T05:46:32;5.13;;;3.10;;
40533;SDS011;26233;51.894;10.192;2023-02-01T05:49:01;5.87;;;3.30;;
40533;SDS011;26233;51.894;10.192;2023-02-01T05:51:28;8.43;;;3.43;;
40533;SDS011;26233;51.894;10.192;2023-02-01T05:53:55;6.63;;;3.50;;
40533;SDS011;26233;51.894;10.192;2023-02-01T05:56:22;5.03;;;2.87;;
40533;SDS011;26233;51.894;10.192;2023-02-01T05:58:49;5.50;;;2.97;;
40533;SDS011;26233;51.894;10.192;2023-02-01T06:01:16;5.60;;;2.97;;
40533;SDS011;26233;51.894;10.192;2023-02-01T06:03:43;4.60;;;2.73;;
40533;SDS011;26233;51.894;10.192;2023-02-01T06:06:11;5.27;;;3.30;;
40533;SDS011;26233;51.894;10.192;2023-02-01T06:08:38;6.00;;;3.00;;
40533;SDS011;26233;51.894;10.192;2023-02-01T06:11:06;3.80;;;2.63;;
40533;SDS011;26233;51.894;10.192;2023-02-01T06:13:33;7.60;;;3.33;;
40533;SDS011;26233;51.894;10.192;2023-02-01T06:16:01;7.53;;;3.40;;
40533;SDS011;26233;51.894;10.192;2023-02-01T06:18:30;6.13;;;3.00;;
40533;SDS011;26233;51.894;10.192;2023-02-01T06:20:58;6.73;;;2.57;;
40533;SDS011;26233;51.894;10.192;2023-02-01T06:23:27;3.77;;;2.67;;
40533;SDS011;26233;51.894;10.192;2023-02-01T06:25:58;4.70;;;2.73;;
40533;SDS011;26233;51.894;10.192;2023-02-01T06:28:27;3.73;;;2.30;;
40533;SDS011;26233;51.894;10.192;2023-02-01T06:30:54;5.87;;;2.90;;
40533;SDS011;26233;51.894;10.192;2023-02-01T06:33:23;4.40;;;2.83;;
40533;SDS011;26233;51.894;10.192;2023-02-01T06:35:55;5.13;;;3.00;;
40533;SDS011;26233;51.894;10.192;2023-02-01T06:38:23;5.97;;;2.57;;
40533;SDS011;26233;51.894;10.192;2023-02-01T06:40:53;4.80;;;2.93;;
40533;SDS011;26233;51.894;10.192;2023-02-01T06:43:21;3.90;;;2.40;;
40533;SDS011;26233;51.894;10.192;2023-02-01T06:45:48;3.43;;;2.30;;
40533;SDS011;26233;51.894;10.192;2023-02-01T06:48:15;4.37;;;2.37;;
40533;SDS011;26233;51.894;10.192;2023-02-01T06:50:42;5.27;;;2.30;;
40533;SDS011;26233;51.894;10.192;2023-02-01T06:53:10;4.10;;;2.10;;
40533;SDS011;26233;51.894;10.192;2023-02-01T06:55:37;3.87;;;2.40;;
40533;SDS011;26233;51.894;10.192;2023-02-01T06:58:05;4.70;;;2.50;;
40533;SDS011;26233;51.894;10.192;2023-02-01T07:00:32;4.10;;;2.40;;
40533;SDS011;26233;51.894;10.192;2023-02-01T07:03:00;3.03;;;2.57;;
40533;SDS011;26233;51.894;10.192;2023-02-01T07:05:27;3.27;;;2.30;;
40533;SDS011;26233;51.894;10.192;2023-02-01T07:07:54;3.27;;;2.27;;
40533;SDS011;26233;51.894;10.192;2023-02-01T07:10:21;2.90;;;2.23;;
40533;SDS011;26233;51.894;10.192;2023-02-01T07:12:48;3.80;;;2.40;;
40533;SDS011;26233;51.894;10.192;2023-02-01T07:15:17;3.20;;;2.07;;
40533;SDS011;26233;51.894;10.192;2023-02-01T07:17:44;2.80;;;1.90;;
40533;SDS011;26233;51.894;10.192;2023-02-01T07:20:12;3.23;;;2.40;;
40533;SDS011;26233;51.894;10.192;2023-02-01T07:22:39;4.67;;;2.40;;
40533;SDS011;26233;51.894;10.192;2023-02-01T07:25:07;3.07;;;2.40;;
40533;SDS011;26233;51.894;10.192;2023-02-01T07:27:34;4.03;;;2.20;;
40533;SDS011;26233;51.894;10.192;2023-02-01T07:30:05;3.63;;;2.27;;
40533;SDS011;26233;51.894;10.192;2023-02-01T07:32:35;4.33;;;2.60;;
40533;SDS011;26233;51.894;10.192;2023-02-01T07:35:03;2.43;;;2.10;;
40533;SDS011;26233;51.894;10.192;2023-02-01T07:37:31;3.77;;;2.47;;
40533;SDS011;26233;51.894;10.192;2023-02-01T07:39:58;6.50;;;2.43;;
40533;SDS011;26233;51.894;10.192;2023-02-01T07:42:26;7.07;;;3.00;;
40533;SDS011;26233;51.894;10.192;2023-02-01T07:44:53;5.70;;;2.80;;
40533;SDS011;26233;51.894;10.192;2023-02-01T07:47:20;4.27;;;2.60;;
40533;SDS011;26233;51.894;10.192;2023-02-01T07:49:48;5.63;;;2.77;;
40533;SDS011;26233;51.894;10.192;2023-02-01T07:52:15;5.57;;;2.70;;
40533;SDS011;26233;51.894;10.192;2023-02-01T07:54:42;4.93;;;2.60;;
40533;SDS011;26233;51.894;10.192;2023-02-01T07:57:09;4.60;;;2.30;;
40533;SDS011;26233;51.894;10.192;2023-02-01T07:59:38;6.30;;;2.90;;
40533;SDS011;26233;51.894;10.192;2023-02-01T08:02:25;4.67;;;2.63;;
40533;SDS011;26233;51.894;10.192;2023-02-01T08:04:52;5.93;;;2.50;;
40533;SDS011;26233;51.894;10.192;2023-02-01T08:07:19;5.13;;;2.67;;
40533;SDS011;26233;51.894;10.192;2023-02-01T08:09:48;5.07;;;2.50;;
40533;SDS011;26233;51.894;10.192;2023-02-01T08:12:15;5.07;;;2.30;;
40533;SDS011;26233;51.894;10.192;2023-02-01T08:14:42;4.93;;;2.33;;
40533;SDS011;26233;51.894;10.192;2023-02-01T08:17:09;4.50;;;2.20;;
40533;SDS011;26233;51.894;10.192;2023-02-01T08:19:39;4.80;;;2.47;;
40533;SDS011;26233;51.894;10.192;2023-02-01T08:22:07;5.17;;;2.60;;
40533;SDS011;26233;51.894;10.192;2023-02-01T08:24:34;4.63;;;2.40;;
40533;SDS011;26233;51.894;10.192;2023-02-01T08:27:04;4.27;;;2.50;;
40533;SDS011;26233;51.894;10.192;2023-02-01T08:29:31;5.90;;;2.50;;
40533;SDS011;26233;51.894;10.192;2023-02-01T08:31:58;3.93;;;2.10;;
40533;SDS011;26233;51.894;10.192;2023-02-01T08:34:25;5.33;;;2.33;;
40533;SDS011;26233;51.894;10.192;2023-02-01T08:36:52;4.33;;;2.20;;
40533;SDS011;26233;51.894;10.192;2023-02-01T08:39:26;4.47;;;2.20;;
40533;SDS011;26233;51.894;10.192;2023-02-01T08:41:53;5.13;;;2.97;;
40533;SDS011;26233;51.894;10.192;2023-02-01T08:44:38;4.50;;;2.43;;
40533;SDS011;26233;51.894;10.192;2023-02-01T08:47:08;4.87;;;2.37;;
40533;SDS011;26233;51.894;10.192;2023-02-01T08:49:36;6.17;;;2.70;;
40533;SDS011;26233;51.894;10.192;2023-02-01T08:52:03;4.77;;;2.30;;
40533;SDS011;26233;51.894;10.192;2023-02-01T08:54:32;5.43;;;2.60;;
40533;SDS011;26233;51.894;10.192;2023-02-01T08:56:59;4.33;;;2.17;;
40533;SDS011;26233;51.894;10.192;2023-02-01T08:59:26;6.30;;;2.20;;
40533;SDS011;26233;51.894;10.192;2023-02-01T09:01:53;8.47;;;2.73;;
40533;SDS011;26233;51.894;10.192;2023-02-01T09:04:20;8.07;;;2.90;;
40533;SDS011;26233;51.894;10.192;2023-02-01T09:06:47;5.67;;;2.57;;
40533;SDS011;26233;51.894;10.192;2023-02-01T09:09:14;6.53;;;2.37;;
40533;SDS011;26233;51.894;10.192;2023-02-01T09:11:43;7.10;;;2.67;;
40533;SDS011;26233;51.894;10.192;2023-02-01T09:14:10;7.03;;;2.60;;
40533;SDS011;26233;51.894;10.192;2023-02-01T09:16:37;3.90;;;2.23;;
40533;SDS011;26233;51.894;10.192;2023-02-01T09:19:05;5.23;;;3.00;;
40533;SDS011;26233;51.894;10.192;2023-02-01T09:21:32;3.33;;;2.00;;
40533;SDS011;26233;51.894;10.192;2023-02-01T09:23:59;6.63;;;2.30;;
40533;SDS011;26233;51.894;10.192;2023-02-01T09:26:26;4.53;;;2.20;;
40533;SDS011;26233;51.894;10.192;2023-02-01T09:28:54;6.20;;;2.20;;
40533;SDS011;26233;51.894;10.192;2023-02-01T09:31:21;4.70;;;2.30;;
40533;SDS011;26233;51.894;10.192;2023-02-01T09:33:48;4.97;;;2.40;;
40533;SDS011;26233;51.894;10.192;2023-02-01T09:36:15;4.90;;;2.20;;
40533;SDS011;26233;51.894;10.192;2023-02-01T09:38:44;4.33;;;2.20;;
40533;SDS011;26233;51.894;10.192;2023-02-01T09:41:16;4.53;;;2.10;;
40533;SDS011;26233;51.894;10.192;2023-02-01T09:44:01;6.33;;;2.17;;
40533;SDS011;26233;51.894;10.192;2023-02-01T09:46:38;4.67;;;2.20;;
40533;SDS011;26233;51.894;10.192;2023-02-01T09:49:05;7.73;;;2.73;;
40533;SDS011;26233;51.894;10.192;2023-02-01T09:51:39;7.90;;;2.70;;
40533;SDS011;26233;51.894;10.192;2023-02-01T09:54:12;4.77;;;2.40;;
40533;SDS011;26233;51.894;10.192;2023-02-01T09:56:44;5.50;;;2.67;;
40533;SDS011;26233;51.894;10.192;2023-02-01T09:59:21;4.10;;;2.00;;
40533;SDS011;26233;51.894;10.192;2023-02-01T10:01:58;4.53;;;2.30;;
40533;SDS011;26233;51.894;10.192;2023-02-01T10:04:27;5.17;;;2.30;;
40533;SDS011;26233;51.894;10.192;2023-02-01T10:06:57;8.77;;;2.77;;
40533;SDS011;26233;51.894;10.192;2023-02-01T10:09:42;5.50;;;2.50;;
40533;SDS011;26233;51.894;10.192;2023-02-01T10:15:33;5.37;;;2.67;;
40533;SDS011;26233;51.894;10.192;2023-02-01T10:18:21;6.40;;;2.60;;
40533;SDS011;26233;51.894;10.192;2023-02-01T10:21:04;3.50;;;2.10;;
40533;SDS011;26233;51.894;10.192;2023-02-01T10:23:52;5.07;;;2.33;;
40533;SDS011;26233;51.894;10.192;2023-02-01T10:26:33;6.03;;;2.50;;
40533;SDS011;26233;51.894;10.192;2023-02-01T10:29:04;4.83;;;2.20;;
40533;SDS011;26233;51.894;10.192;2023-02-01T10:31:43;5.30;;;2.27;;
40533;SDS011;26233;51.894;10.192;2023-02-01T10:34:13;6.60;;;2.60;;
40533;SDS011;26233;51.894;10.192;2023-02-01T10:36:50;4.60;;;2.00;;
40533;SDS011;26233;51.894;10.192;2023-02-01T10:39:21;4.47;;;2.73;;
40533;SDS011;26233;51.894;10.192;2023-02-01T10:41:49;4.67;;;2.37;;
40533;SDS011;26233;51.894;10.192;2023-02-01T10:44:17;5.63;;;2.57;;
40533;SDS011;26233;51.894;10.192;2023-02-01T10:46:49;5.77;;;2.63;;
40533;SDS011;26233;51.894;10.192;2023-02-01T10:49:18;4.23;;;2.33;;
40533;SDS011;26233;51.894;10.192;2023-02-01T10:51:51;5.20;;;2.40;;
40533;SDS011;26233;51.894;10.192;2023-02-01T10:54:31;4.17;;;2.23;;
40533;SDS011;26233;51.894;10.192;2023-02-01T10:57:00;5.30;;;2.57;;
40533;SDS011;26233;51.894;10.192;2023-02-01T10:59:28;7.33;;;2.73;;
40533;SDS011;26233;51.894;10.192;2023-02-01T11:02:00;6.80;;;2.50;;
40533;SDS011;26233;51.894;10.192;2023-02-01T11:04:32;7.10;;;3.03;;
40533;SDS011;26233;51.894;10.192;2023-02-01T11:07:05;4.07;;;2.40;;
40533;SDS011;26233;51.894;10.192;2023-02-01T11:09:40;5.07;;;2.30;;
40533;SDS011;26233;51.894;10.192;2023-02-01T11:12:20;5.30;;;2.57;;
40533;SDS011;26233;51.894;10.192;2023-02-01T11:14:56;5.60;;;2.40;;
40533;SDS011;26233;51.894;10.192;2023-02-01T11:17:33;5.77;;;2.40;;
40533;SDS011;26233;51.894;10.192;2023-02-01T11:20:03;4.20;;;2.50;;
40533;SDS011;26233;51.894;10.192;2023-02-01T11:22:45;3.67;;;2.10;;
40533;SDS011;26233;51.894;10.192;2023-02-01T11:25:13;7.57;;;2.50;;
40533;SDS011;26233;51.894;10.192;2023-02-01T11:27:43;5.27;;;2.47;;
40533;SDS011;26233;51.894;10.192;2023-02-01T11:30:14;4.43;;;2.10;;
40533;SDS011;26233;51.894;10.192;2023-02-01T11:32:47;8.40;;;2.70;;
40533;SDS011;26233;51.894;10.192;2023-02-01T11:35:17;5.33;;;2.33;;
40533;SDS011;26233;51.894;10.192;2023-02-01T11:37:48;3.93;;;2.20;;
40533;SDS011;26233;51.894;10.192;2023-02-01T11:40:25;3.63;;;1.97;;
40533;SDS011;26233;51.894;10.192;2023-02-01T11:42:56;5.47;;;2.60;;
40533;SDS011;26233;51.894;10.192;2023-02-01T11:45:25;4.93;;;2.50;;
40533;SDS011;26233;51.894;10.192;2023-02-01T11:47:56;6.57;;;2.53;;
40533;SDS011;26233;51.894;10.192;2023-02-01T11:50:28;4.93;;;2.17;;
40533;SDS011;26233;51.894;10.192;2023-02-01T11:56:05;5.17;;;2.50;;
40533;SDS011;26233;51.894;10.192;2023-02-01T11:58:56;4.13;;;2.17;;
40533;SDS011;26233;51.894;10.192;2023-02-01T12:01:57;4.63;;;2.20;;
40533;SDS011;26233;51.894;10.192;2023-02-01T12:05:10;3.83;;;2.53;;
40533;SDS011;26233;51.894;10.192;2023-02-01T12:07:57;5.90;;;2.13;;
40533;SDS011;26233;51.894;10.192;2023-02-01T12:11:02;5.47;;;2.67;;
40533;SDS011;26233;51.894;10.192;2023-02-01T12:13:48;4.33;;;2.20;;
40533;SDS011;26233;51.894;10.192;2023-02-01T12:16:25;7.60;;;2.67;;
40533;SDS011;26233;51.894;10.192;2023-02-01T12:19:06;5.40;;;2.80;;
40533;SDS011;26233;51.894;10.192;2023-02-01T12:21:56;6.13;;;2.73;;
40533;SDS011;26233;51.894;10.192;2023-02-01T12:25:01;4.47;;;2.83;;
40533;SDS011;26233;51.894;10.192;2023-02-01T12:28:01;5.77;;;2.87;;
40533;SDS011;26233;51.894;10.192;2023-02-01T12:30:49;3.93;;;2.40;;
40533;SDS011;26233;51.894;10.192;2023-02-01T12:33:52;5.47;;;2.97;;
40533;SDS011;26233;51.894;10.192;2023-02-01T12:36:46;5.93;;;2.90;;
40533;SDS011;26233;51.894;10.192;2023-02-01T12:39:27;6.63;;;3.13;;
40533;SDS011;26233;51.894;10.192;2023-02-01T12:41:58;5.03;;;2.90;;
40533;SDS011;26233;51.894;10.192;2023-02-01T12:44:33;5.73;;;3.13;;
40533;SDS011;26233;51.894;10.192;2023-02-01T12:47:11;5.80;;;3.47;;
40533;SDS011;26233;51.894;10.192;2023-02-01T12:49:46;5.77;;;3.37;;
40533;SDS011;26233;51.894;10.192;2023-02-01T12:52:21;4.70;;;3.10;;
40533;SDS011;26233;51.894;10.192;2023-02-01T12:55:01;4.90;;;3.63;;
40533;SDS011;26233;51.894;10.192;2023-02-01T12:57:37;4.10;;;3.40;;
40533;SDS011;26233;51.894;10.192;2023-02-01T13:00:13;4.37;;;3.30;;
40533;SDS011;26233;51.894;10.192;2023-02-01T13:02:50;4.10;;;3.17;;
40533;SDS011;26233;51.894;10.192;2023-02-01T13:05:27;5.83;;;3.40;;
40533;SDS011;26233;51.894;10.192;2023-02-01T13:08:01;8.23;;;3.97;;
40533;SDS011;26233;51.894;10.192;2023-02-01T13:10:34;7.93;;;5.00;;
40533;SDS011;26233;51.894;10.192;2023-02-01T13:13:09;7.20;;;4.70;;
40533;SDS011;26233;51.894;10.192;2023-02-01T13:15:42;6.17;;;4.20;;
40533;SDS011;26233;51.894;10.192;2023-02-01T13:18:16;5.67;;;4.00;;
40533;SDS011;26233;51.894;10.192;2023-02-01T13:20:47;5.97;;;4.30;;
40533;SDS011;26233;51.894;10.192;2023-02-01T13:23:23;4.97;;;3.90;;
40533;SDS011;26233;51.894;10.192;2023-02-01T13:25:55;6.33;;;4.37;;
40533;SDS011;26233;51.894;10.192;2023-02-01T13:28:24;6.03;;;4.10;;
40533;SDS011;26233;51.894;10.192;2023-02-01T13:31:02;4.20;;;3.63;;
40533;SDS011;26233;51.894;10.192;2023-02-01T13:34:08;5.63;;;3.47;;
40533;SDS011;26233;51.894;10.192;2023-02-01T13:37:06;4.50;;;3.77;;
40533;SDS011;26233;51.894;10.192;2023-02-01T13:40:03;6.53;;;3.50;;
40533;SDS011;26233;51.894;10.192;2023-02-01T13:42:47;4.40;;;3.50;;
40533;SDS011;26233;51.894;10.192;2023-02-01T13:45:18;5.57;;;3.57;;
40533;SDS011;26233;51.894;10.192;2023-02-01T13:47:48;3.70;;;3.30;;
40533;SDS011;26233;51.894;10.192;2023-02-01T13:50:20;4.83;;;3.90;;
40533;SDS011;26233;51.894;10.192;2023-02-01T13:52:52;5.53;;;3.47;;
40533;SDS011;26233;51.894;10.192;2023-02-01T13:55:26;5.07;;;3.63;;
40533;SDS011;26233;51.894;10.192;2023-02-01T13:58:03;4.33;;;3.40;;
40533;SDS011;26233;51.894;10.192;2023-02-01T14:00:40;4.13;;;3.23;;
40533;SDS011;26233;51.894;10.192;2023-02-01T14:03:09;6.17;;;3.87;;
40533;SDS011;26233;51.894;10.192;2023-02-01T14:08:44;3.27;;;2.77;;
40533;SDS011;26233;51.894;10.192;2023-02-01T14:11:39;4.40;;;3.50;;
40533;SDS011;26233;51.894;10.192;2023-02-01T14:23:28;3.50;;;3.10;;
40533;SDS011;26233;51.894;10.192;2023-02-01T14:26:16;4.23;;;3.37;;
40533;SDS011;26233;51.894;10.192;2023-02-01T14:28:48;4.60;;;3.40;;
40533;SDS011;26233;51.894;10.192;2023-02-01T14:31:35;2.97;;;2.77;;
40533;SDS011;26233;51.894;10.192;2023-02-01T14:34:15;3.20;;;2.90;;
40533;SDS011;26233;51.894;10.192;2023-02-01T14:36:48;3.03;;;2.73;;
40533;SDS011;26233;51.894;10.192;2023-02-01T14:39:28;3.53;;;2.90;;
40533;SDS011;26233;51.894;10.192;2023-02-01T14:42:04;3.70;;;3.40;;
40533;SDS011;26233;51.894;10.192;2023-02-01T14:44:45;4.43;;;3.23;;
40533;SDS011;26233;51.894;10.192;2023-02-01T14:50:03;3.23;;;2.93;;
40533;SDS011;26233;51.894;10.192;2023-02-01T14:52:45;2.07;;;1.87;;
40533;SDS011;26233;51.894;10.192;2023-02-01T14:55:18;2.00;;;1.73;;
40533;SDS011;26233;51.894;10.192;2023-02-01T14:57:52;1.90;;;1.67;;
40533;SDS011;26233;51.894;10.192;2023-02-01T15:00:23;1.00;;;1.00;;
40533;SDS011;26233;51.894;10.192;2023-02-01T15:02:55;0.93;;;0.87;;
40533;SDS011;26233;51.894;10.192;2023-02-01T15:05:45;0.80;;;0.80;;
40533;SDS011;26233;51.894;10.192;2023-02-01T15:08:23;1.50;;;0.90;;
40533;SDS011;26233;51.894;10.192;2023-02-01T15:10:53;1.10;;;1.10;;
40533;SDS011;26233;51.894;10.192;2023-02-01T15:13:24;1.10;;;1.00;;
40533;SDS011;26233;51.894;10.192;2023-02-01T15:16:02;0.70;;;0.70;;
40533;SDS011;26233;51.894;10.192;2023-02-01T15:18:33;0.80;;;0.80;;
40533;SDS011;26233;51.894;10.192;2023-02-01T15:21:01;0.70;;;0.70;;
40533;SDS011;26233;51.894;10.192;2023-02-01T15:23:31;0.70;;;0.70;;
40533;SDS011;26233;51.894;10.192;2023-02-01T15:25:59;0.80;;;0.80;;
40533;SDS011;26233;51.894;10.192;2023-02-01T15:28:26;0.70;;;0.70;;
40533;SDS011;26233;51.894;10.192;2023-02-01T15:30:54;0.83;;;0.80;;
40533;SDS011;26233;51.894;10.192;2023-02-01T15:33:23;0.60;;;0.60;;
40533;SDS011;26233;51.894;10.192;2023-02-01T15:35:53;0.70;;;0.70;;